Stone Park, Illinois
Current Conditions -  °F | °C
As of 3:51 PM on Saturday 25 Oct 2014 (Local Time) from KORD Reporting Station
Few Clouds Few Clouds  
Wind Chill: 71°   Ceiling: Unl
Heat Index: 71°   Visibility: 10mi
Dew Point: 27°   Wind: 18mph
Humidity: 19%   Direction: 280°W
Pressure: 29.9"   Gusts: NA
Location:  41.91°N, 87.88°W
Report Text: KORD 252051Z 28016KT 10SM FEW250 22/M03 A2990 RMK AO2 PK WND 30028/2041 SLP125 T02171028 56010
Loading
Personal Weather Stations






























Interactive Weather Map
Tropical Storm Tracking
New forecast layout! Learn more

10-Day Weather Forecast

Advertisements
Track Severe Weather on mobile